Garnet Lake, New York
Current Conditions -  °F | °C
As of 5:53 PM on Friday 28 Nov 2014 (Local Time) from KGFL Reporting Station
Overcast Overcast  
Wind Chill: 25°   Ceiling: 5000
Heat Index: 25°   Visibility: 10mi
Dew Point: 12°   Wind: 3mph
Humidity: 58%   Direction: 230°SW
Pressure: 30.18"   Gusts: NA
Location:  43.5954°N, 74.0781°W
Report Text: KGFL 282253Z AUTO 23003KT 10SM OVC050 M04/M11 A3018 RMK AO2 SLP230 T10391111
Loading
Personal Weather Stations






























Interactive Weather Map New forecast layout! Learn more

10-Day Weather Forecast

Advertisements
Track Severe Weather on mobile